ADDS METAR Data INFO
IDs: Format: Raw Decoded Include TAF

Data at: 2240 UTC 22 Aug 2017

KJAS 222235Z AUTO 16004KT 10SM 33/23 A3002 RMK AO2 T03320231
KJAS 222215Z AUTO 16004KT 10SM SCT050 34/23 A3002 RMK AO2 T03410225
KJAS 222155Z AUTO 00000KT 10SM SCT050 34/22 A3002 RMK AO2 T03420219
KJAS 222135Z AUTO 00000KT 10SM 34/22 A3002 RMK AO2 T03410219
KJAS 222115Z AUTO 00000KT 10SM 34/22 A3003 RMK AO2 T03390222
KJAS 222055Z AUTO 00000KT 10SM 34/23 A3003 RMK AO2 T03360226
KJAS 222035Z AUTO 09003KT 10SM 34/23 A3004 RMK AO2 T03360225
KJAS 222015Z AUTO 00000KT 10SM SCT048 34/22 A3005 RMK AO2 T03410222
KJAS 221955Z AUTO 00000KT 10SM CLR 34/22 A3006 RMK AO2 T03390218
KJAS 221935Z AUTO 00000KT 10SM CLR 34/22 A3006 RMK AO2 T03360220
KJAS 221915Z AUTO 21005KT 10SM CLR 33/22 A3007 RMK AO2 T03300217
KJAS 221855Z AUTO 23005KT 10SM SCT048 33/22 A3008 RMK AO2 T03290219
KJAS 221835Z AUTO 24003KT 10SM 33/22 A3009 RMK AO2 T03290219
KJAS 221815Z AUTO 23003KT 10SM 32/23 A3009 RMK AO2 T03220225
KJAS 221755Z AUTO 00000KT 10SM 32/22 A3009 RMK AO2 T03240224
KJAS 221735Z AUTO 19003KT 10SM 32/22 A3010 RMK AO2 T03230221
KJAS 221715Z AUTO 00000KT 10SM SCT033 SCT050 32/22 A3011 RMK AO2 T03170224
KJAS 221655Z AUTO 35004KT 10SM BKN031 BKN040 BKN050 31/23 A3011 RMK AO2 T03120233
KJAS 221635Z AUTO 19003KT 10SM SCT033 SCT040 31/24 A3012 RMK AO2 T03120235
KJAS 221615Z AUTO 19003KT 10SM CLR 30/24 A3012 RMK AO2 T03030240
KJAS 221555Z AUTO 28003KT 10SM SCT024 SCT045 SCT055 30/24 A3012 RMK AO2 T03040242
KJAS 221535Z AUTO 00000KT 10SM 30/24 A3012 RMK AO2 T03020243
KJAS 221515Z AUTO 00000KT 10SM 30/25 A3012 RMK AO2 T02980247
KJAS 221455Z AUTO 00000KT 10SM 29/25 A3011 RMK AO2 T02890246
KJAS 221435Z AUTO 00000KT 10SM 28/25 A3011 RMK AO2 T02840247
KJAS 221415Z AUTO 00000KT 10SM 28/25 A3011 RMK AO2 T02770247
KJAS 221355Z AUTO 00000KT 10SM 27/25 A3010 RMK AO2 T02690246
KJAS 221335Z AUTO 00000KT 10SM 26/24 A3010 RMK AO2 T02570243
KJAS 221315Z AUTO 00000KT 10SM 24/24 A3009 RMK AO2 T02430239
KJAS 221255Z AUTO 00000KT 7SM 24/23 A3009 RMK AO2 T02350232
KJAS 221235Z AUTO 00000KT 5SM BR 23/23 A3008 RMK AO2 T02300228
KJAS 221215Z AUTO 00000KT 4SM BR 23/22 A3008 RMK AO2 T02260224
KJAS 221155Z AUTO 00000KT 5SM BR 23/22 A3006 RMK AO2 T02260224
KJAS 221135Z AUTO 00000KT 7SM 23/23 A3006 RMK AO2 T02270225
KJAS 221115Z AUTO 00000KT 5SM BR 23/23 A3006 RMK AO2 T02270225
KJAS 221055Z AUTO 00000KT 4SM BR 23/23 A3006 RMK AO2 T02280225
KJAS 221035Z AUTO 00000KT 5SM BR 23/23 A3006 RMK AO2 T02290226
KJAS 221015Z AUTO 00000KT 2SM BR CLR 23/23 A3006 RMK AO2 T02300228
KJAS 220955Z AUTO 00000KT 4SM BR CLR 23/23 A3006 RMK AO2 T02310229
KJAS 220935Z AUTO 00000KT 5SM BR 23/23 A3006 RMK AO2 T02320229
KJAS 220915Z AUTO 00000KT 5SM BR 23/23 A3007 RMK AO2 T02330230
KJAS 220855Z AUTO 00000KT 7SM 23/23 A3007 RMK AO2 T02340230
KJAS 220835Z AUTO 00000KT 5SM BR 24/23 A3007 RMK AO2 T02350231
KJAS 220815Z AUTO 00000KT 5SM BR CLR 24/23 A3007 RMK AO2 T02360232
KJAS 220755Z AUTO 00000KT 5SM BR CLR 24/23 A3008 RMK AO2 T02370233
KJAS 220735Z AUTO 00000KT 5SM BR 24/23 A3008 RMK AO2 T02380233
KJAS 220715Z AUTO 00000KT 7SM 24/23 A3008 RMK AO2 T02390234
KJAS 220655Z AUTO 00000KT 7SM 24/24 A3008 RMK AO2 T02410236
KJAS 220635Z AUTO 00000KT 5SM BR 24/24 A3009 RMK AO2 T02420236
KJAS 220615Z AUTO 00000KT 7SM 24/24 A3009 RMK AO2 T02440238
KJAS 220555Z AUTO 00000KT 7SM 25/24 A3010 RMK AO2 T02460239
KJAS 220535Z AUTO 00000KT 7SM 25/24 A3010 RMK AO2 T02470239
KJAS 220515Z AUTO 00000KT 7SM 25/24 A3010 RMK AO2 T02500239
KJAS 220455Z AUTO 00000KT 10SM 25/24 A3011 RMK AO2 T02540240
KJAS 220435Z AUTO 00000KT 10SM 26/24 A3011 RMK AO2 T02550240
KJAS 220415Z AUTO 00000KT 10SM 26/24 A3011 RMK AO2 T02560242
KJAS 220355Z AUTO 00000KT 10SM 26/24 A3012 RMK AO2 T02610244
KJAS 220335Z AUTO 00000KT 10SM 27/24 A3012 RMK AO2 T02670244
KJAS 220315Z AUTO 00000KT 10SM 27/24 A3013 RMK AO2 T02700244
KJAS 220255Z AUTO 00000KT 10SM 27/25 A3012 RMK AO2 T02690246
KJAS 220235Z AUTO 00000KT 10SM 27/25 A3011 RMK AO2 T02720250
KJAS 220215Z AUTO 00000KT 10SM 28/25 A3010 RMK AO2 T02750251
KJAS 220155Z AUTO 00000KT 10SM 28/25 A3010 RMK AO2 T02800251
KJAS 220135Z AUTO 00000KT 10SM 28/25 A3009 RMK AO2 T02800250
KJAS 220115Z AUTO 19003KT 10SM 29/25 A3009 RMK AO2 T02870251
KJAS 220055Z AUTO 00000KT 10SM 30/25 A3008 RMK AO2 T02950252
KJAS 220035Z AUTO 00000KT 10SM 31/25 A3008 RMK AO2 T03070247
KJAS 220015Z AUTO 00000KT 10SM 32/24 A3007 RMK AO2 T03150242
KJAS 212355Z AUTO 00000KT 10SM 32/24 A3006 RMK AO2 T03210240
KJAS 212335Z AUTO 11003KT 10SM 33/24 A3007 RMK AO2 T03260236
KJAS 212315Z AUTO 13003KT 10SM CLR 33/23 A3007 RMK AO2 T03300228
KJAS 212255Z AUTO 09003KT 10SM CLR 33/23 A3007 RMK AO2 T03310227
KJAS 212235Z AUTO 12003KT 10SM 33/22 A3007 RMK AO2 T03330223
KJAS 212215Z AUTO 14003KT 10SM 33/22 A3007 RMK AO2 T03340221
KJAS 212155Z AUTO 10004KT 10SM 34/23 A3007 RMK AO2 T03350226
KJAS 212135Z AUTO 09003KT 10SM 33/23 A3008 RMK AO2 T03340233
KJAS 212115Z AUTO 13004KT 10SM 33/23 A3008 RMK AO2 T03330226
KJAS 212055Z AUTO 08004KT 10SM 33/23 A3008 RMK AO2 T03340230
KJAS 212035Z AUTO 09003KT 10SM 33/24 A3009 RMK AO2 T03330236
KJAS 212015Z AUTO 10003KT 10SM 33/24 A3009 RMK AO2 T03310236
KJAS 211955Z AUTO 13004KT 10SM 33/24 A3009 RMK AO2 T03280241
KJAS 211935Z AUTO 10004KT 10SM 32/24 A3009 RMK AO2 T03230244
KJAS 211915Z AUTO 00000KT 10SM 32/25 A3010 RMK AO2 T03170248
KJAS 211855Z AUTO 00000KT 10SM 31/25 A3011 RMK AO2 T03110249
KJAS 211835Z AUTO 10003KT 10SM 31/25 A3011 RMK AO2 T03100245
KJAS 211815Z AUTO 11003KT 10SM 32/24 A3012 RMK AO2 T03150242
KJAS 211755Z AUTO 09003KT 10SM 32/24 A3013 RMK AO2 T03190236
KJAS 211735Z AUTO 10003KT 10SM 33/24 A3013 RMK AO2 T03250239
KJAS 211715Z AUTO 10005KT 10SM 32/24 A3013 RMK AO2 T03230238
KJAS 211655Z AUTO 09003KT 10SM 32/25 A3013 RMK AO2 T03210245
KJAS 211635Z AUTO 11005KT 10SM 32/25 A3013 RMK AO2 T03180248
KJAS 211615Z AUTO 11005KT 10SM 31/25 A3013 RMK AO2 T03120250
KJAS 211555Z AUTO 00000KT 10SM 31/25 A3013 RMK AO2 T03120253
KJAS 211535Z AUTO 00000KT 10SM 31/26 A3013 RMK AO2 T03100257
KJAS 211515Z AUTO 00000KT 10SM 31/26 A3013 RMK AO2 T03060259
KJAS 211455Z AUTO 07003KT 10SM 30/26 A3012 RMK AO2 T03010256
KJAS 211435Z AUTO 09003KT 10SM 29/26 A3012 RMK AO2 T02940256
KJAS 211415Z AUTO 08003KT 10SM CLR 29/26 A3012 RMK AO2 T02850257
KJAS 211355Z AUTO 08003KT 10SM CLR 28/25 A3012 RMK AO2 T02750254
KJAS 211335Z AUTO 00000KT 10SM CLR 26/25 A3011 RMK AO2 T02630251
KJAS 211315Z AUTO 08003KT 10SM 25/25 A3011 RMK AO2 T02530248
KJAS 211255Z AUTO 00000KT 7SM 25/24 A3011 RMK AO2 T02450242
KJAS 211235Z AUTO 00000KT 5SM BR 24/24 A3010 RMK AO2 T02400237
KJAS 211215Z AUTO 00000KT 4SM BR CLR 24/23 A3010 RMK AO2 T02370234
KJAS 211155Z AUTO 00000KT 5SM BR CLR 24/24 A3010 RMK AO2 T02380235
KJAS 211135Z AUTO 00000KT 7SM CLR 24/24 A3010 RMK AO2 T02400236
KJAS 211115Z AUTO 00000KT 7SM CLR 24/24 A3010 RMK AO2 T02400237
KJAS 211055Z AUTO 00000KT 7SM CLR 24/24 A3010 RMK AO2 T02400237